»·PEaware :: N922MW KTEX-KLXV

N922MW :: KTEX-KLXV

FLIGHT INFORMATION

Flight Status: Arrived
Operator: Privately registered:
United States
More flights under this callsign
Pilot: Ian G. (41107)
Aircraft: CIRRUS VISIONJET
(SF50)
More flights by this aircraft type
Origin: KTEX Telluride Regl
United States
Destination: KLXV Lake Co
United States
More flights between these airports :: More routes between these airports
Route: ETL MTJ V361 DBLV134 DAVVY
File this flight plan on PilotEdge
Remarks: RMK / SIMBRIEF
Altitude:
(Current/Filed)
21,000ft
Speed:
(Current/Filed)
281kts
Departed: 03-Jun-23 12:16 PM
Arrived: 03-Jun-23 01:02 PM
Distance/Time
Traveled:
107nm/0:46
Distance/Time
To Go:
Arrived

Flight Plot

Page will automatically refresh every two minutes.

Flight plan parsing failed; only flown route is shown


Map Options




Map Legend


Flown Route
Filed Route
Departure Airport
Arrival Airport
Navaid (VOR, NDB)
Fix

Horizontal Profiles

Position Reports

Time Latitude Longitude Heading Altitude Ground
Speed
03-Jun-23 12:11 37.955386 -107.902450 107 9064ft 0kts
03-Jun-23 12:12 37.955386 -107.902450 107 9064ft 0kts
03-Jun-23 12:12 37.955384 -107.902443 107 9064ft 0kts
03-Jun-23 12:14 37.953532 -107.901947 108 9063ft 7kts
03-Jun-23 12:15 37.952449 -107.902339 285 9057ft 6kts
03-Jun-23 12:16 37.958772 -107.932201 285 9701ft 121kts
03-Jun-23 12:16 37.964648 -107.968472 290 10700ft 157kts
03-Jun-23 12:17 37.983720 -108.028785 289 12322ft 193kts
03-Jun-23 12:18 37.999856 -108.094207 288 14183ft 198kts
03-Jun-23 12:19 38.016530 -108.161852 288 15731ft 204kts
03-Jun-23 12:21 38.053669 -108.227450 343 17486ft 212kts
03-Jun-23 12:21 38.100713 -108.212161 29 18702ft 222kts
03-Jun-23 12:22 38.154448 -108.171142 30 20038ft 227kts
03-Jun-23 12:23 38.209441 -108.128879 30 21083ft 246kts
03-Jun-23 12:24 38.273481 -108.079562 29 21067ft 285kts
03-Jun-23 12:25 38.343044 -108.025924 29 21116ft 297kts
03-Jun-23 12:26 38.414464 -107.970661 29 21163ft 302kts
03-Jun-23 12:27 38.486500 -107.914831 30 21174ft 304kts
03-Jun-23 12:28 38.561313 -107.866765 23 21171ft 303kts
03-Jun-23 12:29 38.637075 -107.821547 23 21146ft 304kts
03-Jun-23 12:30 38.714077 -107.773428 34 21086ft 304kts
03-Jun-23 12:31 38.776365 -107.699864 42 21048ft 304kts
03-Jun-23 12:32 38.838280 -107.625572 42 21027ft 305kts
03-Jun-23 12:33 38.900170 -107.551113 42 21028ft 306kts
03-Jun-23 12:34 38.962254 -107.476246 42 21029ft 305kts
03-Jun-23 12:35 39.023957 -107.401682 42 21033ft 304kts
03-Jun-23 12:36 39.085740 -107.326830 42 21037ft 304kts
03-Jun-23 12:37 39.147191 -107.252229 42 21080ft 304kts
03-Jun-23 12:38 39.209325 -107.176557 42 20387ft 308kts
03-Jun-23 12:39 39.271949 -107.100092 42 19479ft 310kts
03-Jun-23 12:40 39.334721 -107.023224 42 19198ft 307kts
03-Jun-23 12:41 39.395923 -106.948095 42 19172ft 301kts
03-Jun-23 12:42 39.445637 -106.862264 74 18365ft 314kts
03-Jun-23 12:43 39.466407 -106.751708 75 16805ft 316kts
03-Jun-23 12:44 39.487107 -106.641120 75 15749ft 312kts
03-Jun-23 12:45 39.507078 -106.533973 75 15686ft 302kts
03-Jun-23 12:46 39.526602 -106.428714 75 15703ft 300kts
03-Jun-23 12:47 39.553245 -106.328128 42 15673ft 295kts
03-Jun-23 12:48 39.631302 -106.316312 357 15645ft 292kts
03-Jun-23 12:49 39.681996 -106.381436 267 15638ft 293kts
03-Jun-23 12:50 39.638498 -106.438973 186 15636ft 232kts
03-Jun-23 12:51 39.582487 -106.395136 132 15649ft 249kts
03-Jun-23 12:52 39.522783 -106.359642 179 15378ft 249kts
03-Jun-23 12:53 39.459136 -106.356154 178 14391ft 216kts
03-Jun-23 12:54 39.400775 -106.352957 179 13344ft 192kts
03-Jun-23 12:55 39.355890 -106.346234 171 12510ft 132kts
03-Jun-23 12:56 39.320612 -106.339010 174 12044ft 135kts
03-Jun-23 12:57 39.281107 -106.332197 174 11654ft 146kts
03-Jun-23 12:58 39.241140 -106.334717 186 11295ft 139kts
03-Jun-23 12:59 39.203447 -106.331745 181 10747ft 137kts
03-Jun-23 13:00 39.209423 -106.314274 344 10037ft 108kts
03-Jun-23 13:01 39.224164 -106.317481 354 9937ft 21kts
03-Jun-23 13:02 39.225120 -106.316451 89 9935ft 0kts

Navigation Log

Ident Type
Flight plan parsing failed, navigation log unavailable